Time;durP1;ratioP1;P1;durP2;ratioP2;P2;SDS_P1;SDS_P2;PMS_P1;PMS_P2;Temp;Humidity;BMP_temperature;BMP_pressure;BME280_temperature;BME280_humidity;BME280_pressure;Samples;Min_cycle;Max_cycle;Signal;HPM_P1;HPM_P2
2022/07/14 00:01:28;;;;;;;14.95;4.00;;;;;;;22.81;83.77;101978.81;7389542;19;20018;-57
2022/07/14 00:03:57;;;;;;;14.50;4.13;;;;;;;22.77;83.33;101985.34;7392714;19;20041;-55
2022/07/14 00:06:26;;;;;;;11.95;3.58;;;;;;;22.76;83.36;101983.66;7391536;19;20063;-56
2022/07/14 00:08:55;;;;;;;19.67;3.92;;;;;;;22.73;83.84;101962.50;7388514;19;20019;-54
2022/07/14 00:11:24;;;;;;;15.40;4.05;;;;;;;22.78;83.33;101960.31;7390694;19;20018;-57
2022/07/14 00:13:53;;;;;;;18.92;3.65;;;;;;;22.72;83.36;101961.63;7390339;19;20019;-52
2022/07/14 00:16:22;;;;;;;12.55;3.67;;;;;;;22.78;82.69;101955.84;7391829;19;20048;-55
2022/07/14 00:18:54;;;;;;;14.75;3.85;;;;;;;22.75;82.35;101947.19;7392357;19;20021;-57
2022/07/14 00:21:23;;;;;;;15.50;4.03;;;;;;;22.70;82.88;101950.22;7393231;19;20015;-57
2022/07/14 00:23:51;;;;;;;10.50;3.80;;;;;;;22.61;83.99;101950.97;7390901;19;20291;-55
2022/07/14 00:26:20;;;;;;;15.00;3.85;;;;;;;22.53;84.88;101950.69;7392671;19;20025;-57
2022/07/14 00:28:49;;;;;;;14.75;3.90;;;;;;;22.67;83.19;101945.13;7388008;19;20015;-57
2022/07/14 00:31:18;;;;;;;14.02;3.95;;;;;;;22.70;83.39;101944.88;7390581;19;20025;-56
2022/07/14 00:33:47;;;;;;;15.73;4.60;;;;;;;22.53;83.76;101951.53;7387341;19;20549;-55
2022/07/14 00:36:19;;;;;;;12.73;4.70;;;;;;;22.40;85.43;101953.47;7388936;19;20086;-57
2022/07/14 00:38:47;;;;;;;13.02;3.50;;;;;;;22.39;85.14;101955.25;7395875;19;20017;-57
2022/07/14 00:41:18;;;;;;;13.82;3.50;;;;;;;22.46;84.54;101948.47;7396757;19;20019;-55
2022/07/14 00:43:47;;;;;;;10.82;3.65;;;;;;;22.50;84.37;101949.13;7396752;19;20018;-58
2022/07/14 00:46:16;;;;;;;15.10;3.55;;;;;;;22.29;84.86;101957.78;7397798;19;20018;-56
2022/07/14 00:48:46;;;;;;;11.68;3.75;;;;;;;22.34;85.27;101951.25;7393445;19;20030;-56
2022/07/14 00:51:15;;;;;;;15.30;3.90;;;;;;;22.37;85.08;101959.03;7398590;19;20022;-57
2022/07/14 00:53:52;;;;;;;13.00;3.83;;;;;;;22.22;85.51;101966.34;7394191;19;20613;-57
2022/07/14 00:56:21;;;;;;;13.13;3.65;;;;;;;22.24;84.81;101972.44;7397257;19;20101;-57
2022/07/14 00:58:50;;;;;;;13.35;3.45;;;;;;;22.40;83.79;101978.34;7397989;19;20014;-55
2022/07/14 01:01:19;;;;;;;11.98;3.75;;;;;;;22.50;84.09;101983.84;7397349;19;20010;-56
2022/07/14 01:03:48;;;;;;;13.40;3.03;;;;;;;22.54;82.76;101987.09;7393771;19;20349;-55
2022/07/14 01:06:17;;;;;;;13.30;3.40;;;;;;;22.38;83.25;101990.97;7395568;19;20018;-52
2022/07/14 01:08:48;;;;;;;12.52;3.53;;;;;;;22.38;84.10;101992.78;7392773;19;20018;-54
2022/07/14 01:11:17;;;;;;;11.73;3.58;;;;;;;22.36;84.15;101994.72;7397188;19;20013;-57
2022/07/14 01:13:46;;;;;;;13.43;2.97;;;;;;;22.37;83.10;101999.09;7396688;19;20472;-58
2022/07/14 01:16:16;;;;;;;10.07;2.85;;;;;;;22.51;81.91;102004.25;7394910;19;20332;-56
2022/07/14 01:18:45;;;;;;;13.35;3.45;;;;;;;22.55;81.66;102007.53;7393876;19;20029;-57
2022/07/14 01:21:16;;;;;;;17.00;4.05;;;;;;;22.57;80.47;101990.41;7396285;19;20018;-56
2022/07/14 01:23:45;;;;;;;13.82;3.55;;;;;;;22.49;80.87;101986.63;7394531;19;20014;-57
2022/07/14 01:26:14;;;;;;;12.40;3.80;;;;;;;22.48;80.30;101983.13;7397376;19;20014;-58
2022/07/14 01:28:43;;;;;;;14.07;3.30;;;;;;;22.40;79.66;101965.00;7395728;19;20360;-56
2022/07/14 01:31:12;;;;;;;14.55;3.60;;;;;;;22.44;79.80;101962.94;7397921;19;20026;-57
2022/07/14 01:33:41;;;;;;;10.32;3.05;;;;;;;22.39;79.71;101968.63;7392874;19;20018;-56
2022/07/14 01:36:10;;;;;;;17.30;3.17;;;;;;;22.15;81.29;101966.00;7395154;19;20471;-56
2022/07/14 01:38:42;;;;;;;13.05;3.30;;;;;;;22.11;81.27;101977.84;7395550;19;20428;-57
2022/07/14 01:41:11;;;;;;;14.73;3.97;;;;;;;22.03;81.67;101974.91;7395244;19;20490;-56
2022/07/14 01:43:41;;;;;;;8.93;2.65;;;;;;;22.00;82.01;101981.31;7391266;19;20015;-57
2022/07/14 01:46:10;;;;;;;15.30;3.45;;;;;;;21.97;82.67;101981.53;7398373;19;20018;-54
2022/07/14 01:48:40;;;;;;;16.05;3.33;;;;;;;21.94;82.10;101979.13;7394093;19;20025;-55
2022/07/14 01:51:09;;;;;;;14.98;3.38;;;;;;;21.89;82.38;101984.78;7396200;19;20006;-57
2022/07/14 01:53:38;;;;;;;14.95;3.45;;;;;;;21.91;82.34;101976.69;7395069;19;20037;-54
2022/07/14 01:56:10;;;;;;;12.88;3.33;;;;;;;21.88;82.42;101974.22;7397528;19;20014;-53
2022/07/14 01:58:39;;;;;;;11.82;2.95;;;;;;;21.93;82.36;101975.56;7392633;19;20052;-51
2022/07/14 02:03:55;;;;;;;10.70;3.38;;;;;;;21.82;82.14;101988.88;7394182;19;20043;-51
2022/07/14 02:06:24;;;;;;;15.75;3.40;;;;;;;21.73;83.27;101984.22;7395945;19;20019;-49
2022/07/14 02:08:53;;;;;;;12.65;3.83;;;;;;;21.79;83.10;101978.41;7390459;19;20017;-49
2022/07/14 02:14:07;;;;;;;15.57;3.22;;;;;;;21.69;83.68;101985.38;7396070;19;20384;-51
2022/07/14 02:16:36;;;;;;;13.45;3.53;;;;;;;21.73;82.70;101993.06;7395495;19;20019;-53
2022/07/14 02:19:07;;;;;;;10.93;3.22;;;;;;;21.81;82.23;101989.84;7391834;19;20035;-52
2022/07/14 02:21:35;;;;;;;15.05;3.88;;;;;;;21.88;82.82;101993.75;7395741;19;20026;-51
2022/07/14 02:24:06;;;;;;;11.82;3.10;;;;;;;21.97;81.48;101989.56;7394115;19;20014;-52
2022/07/14 02:26:38;;;;;;;12.93;3.08;;;;;;;21.92;81.23;101989.03;7396441;19;20085;-54
2022/07/14 02:29:08;;;;;;;12.23;3.80;;;;;;;21.86;81.56;101989.50;7395778;19;20105;-50
2022/07/14 02:31:37;;;;;;;11.20;3.17;;;;;;;21.91;82.75;101984.69;7396397;19;20006;-50
2022/07/14 02:34:07;;;;;;;14.60;3.60;;;;;;;21.89;82.70;101986.59;7395247;19;20007;-53
2022/07/14 02:36:36;;;;;;;11.57;3.08;;;;;;;21.82;81.64;101983.53;7395722;19;20015;-50
2022/07/14 02:39:05;;;;;;;15.73;3.08;;;;;;;21.78;82.91;101976.72;7390843;19;20058;-56
2022/07/14 02:41:40;;;;;;;16.70;3.88;;;;;;;21.80;82.84;101979.28;7392664;19;20021;-53
2022/07/14 02:44:09;;;;;;;13.13;3.20;;;;;;;21.81;82.06;101986.31;7392636;19;20022;-53
2022/07/14 02:46:38;;;;;;;14.98;3.72;;;;;;;21.73;82.46;101977.03;7392533;19;20484;-51
2022/07/14 02:49:08;;;;;;;12.57;3.58;;;;;;;21.62;83.49;101977.00;7390679;19;20048;-52
2022/07/14 02:51:40;;;;;;;13.80;3.50;;;;;;;21.47;84.33;101978.09;7393675;19;20014;-53
2022/07/14 02:54:09;;;;;;;12.68;2.80;;;;;;;21.41;85.59;101982.88;7392270;19;20022;-53
2022/07/14 02:56:43;;;;;;;15.38;3.65;;;;;;;21.47;84.93;101978.09;7394604;19;20087;-53
2022/07/14 02:59:11;;;;;;;13.70;3.70;;;;;;;21.48;84.97;101975.31;7392957;19;20028;-52
2022/07/14 03:01:45;;;;;;;14.35;3.42;;;;;;;21.46;85.46;101973.69;7391653;19;20039;-51
2022/07/14 03:04:20;;;;;;;14.57;3.78;;;;;;;21.42;85.44;101962.41;7390371;19;20023;-55
2022/07/14 03:06:49;;;;;;;13.90;3.60;;;;;;;21.51;84.85;101963.56;7395045;19;20123;-54
2022/07/14 03:09:23;;;;;;;12.15;3.25;;;;;;;21.50;83.72;101962.69;7394213;19;20037;-53
2022/07/14 03:11:55;;;;;;;13.57;3.70;;;;;;;21.47;83.54;101952.25;7394471;19;20029;-52
2022/07/14 03:14:25;;;;;;;8.87;3.33;;;;;;;21.40;83.95;101957.16;7390688;19;20026;-50
2022/07/14 03:16:54;;;;;;;13.40;3.42;;;;;;;21.44;84.19;101952.47;7391445;19;20015;-54
2022/07/14 03:19:23;;;;;;;10.75;3.38;;;;;;;21.41;84.65;101960.72;7393699;19;20014;-52
2022/07/14 03:21:52;;;;;;;12.85;3.10;;;;;;;21.36;85.25;101962.84;7392690;19;20029;-54
2022/07/14 03:24:22;;;;;;;13.45;3.33;;;;;;;21.34;85.48;101964.78;7391557;19;20018;-54
2022/07/14 03:26:51;;;;;;;14.43;3.80;;;;;;;21.42;85.44;101965.09;7394726;19;20011;-53
2022/07/14 03:29:23;;;;;;;17.35;3.42;;;;;;;21.40;85.12;101956.31;7391356;19;20020;-50
2022/07/14 03:31:52;;;;;;;9.68;3.38;;;;;;;21.46;84.31;101958.53;7394399;19;20015;-52
2022/07/14 03:34:23;;;;;;;13.57;3.50;;;;;;;21.42;83.79;101960.59;7389489;19;20029;-50
2022/07/14 03:36:52;;;;;;;13.20;2.90;;;;;;;21.43;82.94;101956.97;7392151;19;20467;-55
2022/07/14 03:39:27;;;;;;;13.00;3.22;;;;;;;21.41;82.89;101956.22;7391607;19;20018;-52
2022/07/14 03:41:56;;;;;;;10.35;2.97;;;;;;;21.41;83.00;101963.38;7394818;19;20010;-54
2022/07/14 03:44:27;;;;;;;14.85;3.22;;;;;;;21.43;82.92;101946.31;7388689;19;20019;-53
2022/07/14 03:46:57;;;;;;;16.20;3.38;;;;;;;21.44;83.68;101961.31;7390803;19;20041;-53
2022/07/14 03:49:27;;;;;;;17.30;3.03;;;;;;;21.49;82.55;101958.34;7388815;19;20086;-56
2022/07/14 03:51:59;;;;;;;10.73;3.35;;;;;;;21.46;82.69;101947.88;7391128;19;20014;-52
2022/07/14 03:54:28;;;;;;;12.77;3.53;;;;;;;21.45;82.68;101951.53;7391488;19;20011;-51
2022/07/14 03:56:57;;;;;;;13.30;3.38;;;;;;;21.45;81.92;101943.53;7394217;19;20515;-54
2022/07/14 03:59:29;;;;;;;13.07;3.08;;;;;;;21.44;81.90;101945.31;7391607;19;20033;-49
2022/07/14 04:01:59;;;;;;;9.20;3.00;;;;;;;21.40;82.52;101943.84;7394274;19;20019;-48
2022/07/14 04:04:27;;;;;;;13.15;3.30;;;;;;;21.35;82.17;101938.00;7395218;19;20543;-50
2022/07/14 04:06:56;;;;;;;14.50;2.72;;;;;;;21.39;82.62;101938.63;7396387;19;20029;-49
2022/07/14 04:09:25;;;;;;;15.60;3.42;;;;;;;21.40;82.13;101933.16;7394056;19;20801;-50
2022/07/14 04:11:55;;;;;;;12.55;3.20;;;;;;;21.45;82.18;101940.84;7395629;19;20018;-53
2022/07/14 04:14:24;;;;;;;20.42;3.85;;;;;;;21.41;81.66;101929.56;7397155;19;20011;-52
2022/07/14 04:16:57;;;;;;;10.10;2.70;;;;;;;21.38;81.94;101934.28;7400018;19;20030;-52
2022/07/14 04:19:26;;;;;;;14.27;3.17;;;;;;;21.33;81.77;101937.25;7398103;19;20014;-54
2022/07/14 04:21:55;;;;;;;12.18;2.75;;;;;;;21.25;82.64;101926.31;7402185;19;20486;-49
2022/07/14 04:24:24;;;;;;;12.70;3.25;;;;;;;21.32;82.80;101930.22;7397698;19;20014;-55
2022/07/14 04:26:56;;;;;;;10.48;3.10;;;;;;;21.37;82.57;101930.72;7403684;19;20018;-49
2022/07/14 04:29:25;;;;;;;10.43;3.05;;;;;;;21.36;82.38;101937.06;7402641;19;20471;-49
2022/07/14 04:31:57;;;;;;;14.07;3.60;;;;;;;21.39;82.23;101944.81;7402113;19;20018;-50
2022/07/14 04:34:27;;;;;;;24.25;4.03;;;;;;;21.42;82.41;101949.94;7398137;19;20052;-62
2022/07/14 04:36:57;;;;;;;16.25;3.42;;;;;;;21.42;82.41;101952.59;7398571;19;20022;-51
2022/07/14 04:39:26;;;;;;;9.45;2.88;;;;;;;21.44;81.69;101957.81;7396911;19;20488;-50
2022/07/14 04:41:54;;;;;;;12.77;3.30;;;;;;;21.49;81.68;101953.00;7400125;19;20078;-53
2022/07/14 04:44:23;;;;;;;15.32;3.67;;;;;;;21.45;81.19;101956.84;7395367;19;20010;-53
2022/07/14 04:46:52;;;;;;;12.25;2.95;;;;;;;21.48;81.00;101956.63;7399494;19;20032;-53
2022/07/14 04:52:06;;;;;;;15.95;3.35;;;;;;;21.48;81.30;101961.97;7402151;19;20070;-53
2022/07/14 04:55:08;;;;;;;11.88;3.15;;;;;;;21.56;81.26;101961.44;7411504;19;20368;-51
2022/07/14 04:58:00;;;;;;;9.75;2.65;;;;;;;21.61;81.29;101956.63;7413154;19;20514;-57
2022/07/14 05:00:28;;;;;;;12.70;3.53;;;;;;;21.58;81.13;101956.84;7409283;19;20022;-49
2022/07/14 05:02:58;;;;;;;11.20;2.97;;;;;;;21.57;80.73;101958.66;7406420;19;20671;-54
2022/07/14 05:05:29;;;;;;;11.63;3.72;;;;;;;21.56;79.93;101961.44;7397366;19;20120;-52
2022/07/14 05:07:58;;;;;;;11.77;2.85;;;;;;;21.53;80.27;101953.66;7399475;19;20095;-50
2022/07/14 05:10:35;;;;;;;13.85;3.10;;;;;;;21.55;79.89;101955.25;7394967;19;20057;-55
2022/07/14 05:13:04;;;;;;;11.82;3.20;;;;;;;21.55;79.67;101957.91;7400311;19;20362;-51
2022/07/14 05:15:33;;;;;;;17.50;3.72;;;;;;;21.64;79.00;101959.06;7398207;19;20010;-55
2022/07/14 05:18:04;;;;;;;13.20;3.45;;;;;;;21.59;79.10;101959.41;7397555;19;20116;-53
2022/07/14 05:20:36;;;;;;;13.60;2.92;;;;;;;21.57;78.62;101955.97;7394809;19;20014;-53
2022/07/14 05:23:05;;;;;;;10.93;3.17;;;;;;;21.66;78.60;101962.44;7398926;19;20011;-50
2022/07/14 05:25:34;;;;;;;11.57;2.88;;;;;;;21.72;78.78;101963.81;7395066;19;20019;-51
2022/07/14 05:28:03;;;;;;;12.10;3.30;;;;;;;21.70;78.22;101966.59;7398510;19;20039;-52
2022/07/14 05:30:35;;;;;;;13.77;3.27;;;;;;;21.66;77.17;101969.63;7395011;19;20090;-53
2022/07/14 05:33:05;;;;;;;12.00;2.80;;;;;;;21.68;76.75;101970.34;7397431;19;20026;-50
2022/07/14 05:35:39;;;;;;;8.85;2.80;;;;;;;21.72;76.95;101970.03;7396917;19;20025;-51
2022/07/14 05:38:09;;;;;;;17.10;3.33;;;;;;;21.73;77.65;101973.53;7400196;19;20344;-53
2022/07/14 05:40:38;;;;;;;9.15;2.45;;;;;;;21.78;76.70;101977.56;7394713;19;20022;-54
2022/07/14 05:43:07;;;;;;;18.27;3.10;;;;;;;21.65;76.86;101976.78;7397722;19;20006;-53
2022/07/14 05:45:36;;;;;;;10.50;2.83;;;;;;;21.65;76.97;101981.25;7396855;19;20015;-55
2022/07/14 05:48:06;;;;;;;12.52;2.80;;;;;;;21.71;76.41;101983.47;7398149;19;20017;-53
2022/07/14 05:50:35;;;;;;;97.18;11.60;;;;;;;21.70;76.21;101981.78;7395424;19;20371;-52
2022/07/14 05:53:06;;;;;;;22.83;3.40;;;;;;;21.80;76.69;101980.13;7397547;19;20467;-48
2022/07/14 05:55:35;;;;;;;13.80;2.55;;;;;;;21.87;76.36;101977.88;7395237;19;20444;-49
2022/07/14 05:58:05;;;;;;;16.85;3.70;;;;;;;21.89;76.75;101974.13;7397406;19;20138;-56
2022/07/14 06:00:34;;;;;;;10.50;2.50;;;;;;;21.97;77.15;101976.22;7394531;19;20066;-56
2022/07/14 06:03:04;;;;;;;14.40;2.85;;;;;;;22.02;75.92;101973.19;7399111;19;20018;-56
2022/07/14 06:05:35;;;;;;;11.40;2.53;;;;;;;22.03;76.00;101969.56;7397122;19;20011;-57
2022/07/14 06:08:08;;;;;;;12.77;2.55;;;;;;;22.03;75.50;101967.75;7399042;19;20038;-56
2022/07/14 06:10:37;;;;;;;11.07;2.63;;;;;;;22.02;75.57;101971.41;7395002;19;20103;-51
2022/07/14 06:13:08;;;;;;;9.90;2.88;;;;;;;22.12;75.43;101961.72;7398045;19;20014;-53
2022/07/14 06:15:37;;;;;;;9.15;2.60;;;;;;;22.18;74.80;101971.09;7396224;19;20089;-53
2022/07/14 06:18:06;;;;;;;10.55;2.55;;;;;;;22.18;73.56;101967.53;7397413;19;20014;-49
2022/07/14 06:20:36;;;;;;;11.32;3.10;;;;;;;22.10;74.17;101976.16;7392634;19;20471;-53
2022/07/14 06:23:09;;;;;;;13.05;2.85;;;;;;;22.06;73.83;101974.66;7395698;19;20535;-56
2022/07/14 06:25:38;;;;;;;11.48;3.17;;;;;;;22.15;73.50;101974.00;7395337;19;20455;-53
2022/07/14 06:28:09;;;;;;;11.10;2.58;;;;;;;22.25;73.08;101974.13;7397777;19;20019;-53
2022/07/14 06:30:38;;;;;;;14.98;2.63;;;;;;;22.30;73.45;101974.66;7393353;19;20029;-51
2022/07/14 06:33:08;;;;;;;10.30;2.90;;;;;;;22.40;73.72;101966.81;7394259;19;20018;-52
2022/07/14 06:35:40;;;;;;;16.55;2.70;;;;;;;22.44;72.63;101968.28;7394996;19;20018;-54
2022/07/14 06:38:11;;;;;;;13.43;3.13;;;;;;;22.30;72.98;101970.13;7395228;19;20018;-49
2022/07/14 06:40:42;;;;;;;13.95;3.35;;;;;;;22.26;74.04;101958.00;7394270;19;20044;-50
2022/07/14 06:43:11;;;;;;;10.73;3.00;;;;;;;22.22;73.77;101966.34;7396664;19;20029;-49
2022/07/14 06:45:48;;;;;;;9.85;2.53;;;;;;;22.31;73.00;101963.00;7393815;19;20056;-51
2022/07/14 06:48:22;;;;;;;12.00;2.72;;;;;;;22.41;73.51;101958.69;7396964;19;20015;-52
2022/07/14 06:50:52;;;;;;;11.70;2.85;;;;;;;22.33;74.03;101954.91;7398810;19;20019;-53
2022/07/14 06:53:24;;;;;;;10.05;2.65;;;;;;;22.35;74.04;101953.81;7394235;19;20018;-49
2022/07/14 06:55:53;;;;;;;10.43;2.17;;;;;;;22.46;72.73;101943.13;7394661;19;20340;-51
2022/07/14 06:58:21;;;;;;;10.80;2.38;;;;;;;22.45;73.41;101945.94;7396823;19;20022;-52
2022/07/14 07:00:50;;;;;;;10.55;2.50;;;;;;;22.49;73.32;101947.41;7394565;19;20022;-51
2022/07/14 07:03:19;;;;;;;11.25;2.60;;;;;;;22.60;73.73;101942.09;7397518;19;20013;-54
2022/07/14 07:08:32;;;;;;;8.50;2.17;;;;;;;22.83;70.97;101936.75;7393393;19;20085;-49
2022/07/14 07:11:01;;;;;;;11.20;2.10;;;;;;;22.88;69.69;101947.09;7393334;19;20018;-51
2022/07/14 07:13:30;;;;;;;8.77;2.55;;;;;;;22.91;68.48;101944.16;7396512;19;20015;-48
2022/07/14 07:15:59;;;;;;;6.97;2.13;;;;;;;23.01;68.16;101944.28;7392585;19;20490;-50
2022/07/14 07:18:28;;;;;;;5.90;1.92;;;;;;;23.02;68.52;101940.66;7392934;19;20010;-50
2022/07/14 07:20:57;;;;;;;9.65;2.40;;;;;;;23.06;67.52;101936.75;7393420;19;20018;-49
2022/07/14 07:23:25;;;;;;;4.88;2.03;;;;;;;23.07;68.49;101941.16;7392326;19;20039;-50
2022/07/14 07:25:57;;;;;;;8.35;2.33;;;;;;;23.17;66.85;101939.47;7395242;19;20025;-53
2022/07/14 07:28:26;;;;;;;9.52;2.22;;;;;;;23.30;66.36;101940.16;7395634;19;20015;-54
2022/07/14 07:30:55;;;;;;;8.77;2.28;;;;;;;23.28;65.12;101939.47;7392043;19;20014;-53
2022/07/14 07:33:23;;;;;;;9.55;2.25;;;;;;;23.25;65.79;101928.13;7393589;19;20010;-54
2022/07/14 07:35:53;;;;;;;10.77;2.58;;;;;;;23.22;65.89;101933.75;7393708;19;20487;-53
2022/07/14 07:38:22;;;;;;;9.40;2.00;;;;;;;23.36;65.22;101932.63;7392024;19;20022;-50
2022/07/14 07:40:53;;;;;;;9.02;1.92;;;;;;;23.41;63.11;101933.97;7392499;19;20015;-53
2022/07/14 07:43:24;;;;;;;7.10;1.85;;;;;;;23.45;62.55;101939.91;7395493;19;20026;-58
2022/07/14 07:45:53;;;;;;;8.98;2.08;;;;;;;23.56;63.15;101939.88;7393118;19;20026;-52
2022/07/14 07:48:22;;;;;;;9.57;1.88;;;;;;;23.65;63.48;101938.25;7393857;19;20011;-51
2022/07/14 07:50:51;;;;;;;9.05;2.00;;;;;;;23.63;61.96;101935.72;7395995;19;20007;-53
2022/07/14 07:53:20;;;;;;;5.97;1.75;;;;;;;23.65;62.03;101932.91;7394486;19;20014;-56
2022/07/14 07:55:49;;;;;;;5.97;1.85;;;;;;;23.80;62.54;101928.97;7391743;19;20023;-57
2022/07/14 07:58:18;;;;;;;8.93;2.20;;;;;;;23.87;61.64;101925.81;7393890;19;20011;-52
2022/07/14 08:00:50;;;;;;;24.13;2.92;;;;;;;23.93;60.76;101922.63;7390703;19;20026;-53
2022/07/14 08:03:18;;;;;;;10.30;2.33;;;;;;;24.00;60.39;101929.19;7394809;19;20018;-56
2022/07/14 08:05:47;;;;;;;7.50;1.98;;;;;;;24.03;60.32;101923.56;7392131;19;20026;-58
2022/07/14 08:08:16;;;;;;;9.23;1.80;;;;;;;23.47;57.81;101919.25;7392617;19;20014;-56
2022/07/14 08:10:46;;;;;;;6.18;1.60;;;;;;;23.24;59.04;101919.28;7394088;19;20018;-56
2022/07/14 08:13:15;;;;;;;7.32;2.00;;;;;;;23.45;59.39;101919.34;7393516;19;20061;-56
2022/07/14 08:15:44;;;;;;;13.68;2.28;;;;;;;23.90;58.05;101907.69;7392880;19;20360;-55
2022/07/14 08:18:16;;;;;;;5.65;1.98;;;;;;;24.12;58.10;101904.03;7395060;19;20018;-58
2022/07/14 08:20:45;;;;;;;4.20;1.52;;;;;;;24.25;57.03;101902.97;7390979;19;20085;-54
2022/07/14 08:23:14;;;;;;;11.68;2.47;;;;;;;24.28;56.87;101903.56;7393890;19;20010;-52
2022/07/14 08:25:43;;;;;;;7.25;1.65;;;;;;;23.91;56.67;101900.47;7393803;19;20030;-56
2022/07/14 08:28:11;;;;;;;4.78;1.50;;;;;;;24.06;56.83;101893.00;7390832;19;20018;-52
2022/07/14 08:30:40;;;;;;;938.38;121.78;;;;;;;24.34;58.24;101897.69;7390410;19;20321;-52
2022/07/14 08:33:10;;;;;;;215.80;25.08;;;;;;;24.41;55.31;101892.63;7393265;19;20014;-57
2022/07/14 08:35:42;;;;;;;14.95;2.85;;;;;;;24.40;55.29;101893.63;7391176;19;20041;-55
2022/07/14 08:38:11;;;;;;;6.75;1.98;;;;;;;24.49;54.15;101895.50;7392079;19;20015;-53
2022/07/14 08:40:40;;;;;;;8.23;2.30;;;;;;;24.53;55.27;101886.22;7390073;19;20022;-55
2022/07/14 08:43:10;;;;;;;10.43;2.78;;;;;;;24.68;55.08;101893.94;7391965;19;20356;-55
2022/07/14 08:45:44;;;;;;;6.38;1.77;;;;;;;24.70;52.87;101887.47;7389826;19;20357;-54
2022/07/14 08:48:13;;;;;;;22.63;3.08;;;;;;;24.78;53.99;101884.09;7393378;19;20015;-50
2022/07/14 08:50:46;;;;;;;9.60;2.10;;;;;;;25.03;54.13;101874.72;7389921;19;20044;-56
2022/07/14 08:53:14;;;;;;;;;;;;;;;25.35;52.73;101879.06;7394024;19;20046;-57
2022/07/14 08:55:46;;;;;;;10.73;3.33;;;;;;;25.45;50.93;101867.50;7391872;19;19929;-57
2022/07/14 08:58:14;;;;;;;7.47;1.80;;;;;;;25.32;51.48;101865.09;7392530;19;20014;-57
2022/07/14 09:00:43;;;;;;;17.70;2.97;;;;;;;25.44;50.27;101865.78;7398854;19;20463;-52
2022/07/14 09:03:12;;;;;;;16.98;2.67;;;;;;;25.52;49.76;101860.56;7399919;19;20467;-56
2022/07/14 09:05:45;;;;;;;13.05;1.80;;;;;;;25.63;48.33;101860.41;7397363;19;20010;-55
2022/07/14 09:08:14;;;;;;;;;;;;;;;25.76;48.01;101853.91;7398239;19;20018;-52
2022/07/14 09:10:45;;;;;;;7.25;1.40;;;;;;;25.86;47.27;101850.25;7400163;19;19950;-52
2022/07/14 09:13:17;;;;;;;10.10;2.20;;;;;;;25.88;48.10;101850.94;7399023;19;20014;-52
2022/07/14 09:15:49;;;;;;;8.38;1.90;;;;;;;25.78;47.30;101851.97;7399992;19;20010;-54
2022/07/14 09:18:22;;;;;;;6.47;1.63;;;;;;;25.79;46.94;101848.25;7400124;19;20006;-53
2022/07/14 09:20:54;;;;;;;7.97;1.60;;;;;;;25.98;47.72;101856.28;7396533;19;20333;-52
2022/07/14 09:23:30;;;;;;;;;;;;;;;26.10;46.63;101851.63;7399482;19;20074;-52
2022/07/14 09:26:12;;;;;;;12.18;2.10;;;;;;;26.04;46.72;101850.38;7396009;19;19923;-54
2022/07/14 09:28:42;;;;;;;4.68;1.58;;;;;;;25.77;44.54;101858.31;7395905;19;20003;-55
2022/07/14 09:31:24;;;;;;;7.55;1.88;;;;;;;25.46;46.01;101856.63;7397785;19;20503;-51
2022/07/14 09:33:55;;;;;;;7.03;2.00;;;;;;;25.47;47.80;101847.56;7396941;19;20391;-52
2022/07/14 09:36:29;;;;;;;5.82;1.40;;;;;;;25.68;46.18;101854.63;7399558;19;20010;-54
2022/07/14 09:39:03;;;;;;;4.82;1.67;;;;;;;25.93;46.92;101852.34;7398690;19;20537;-55
2022/07/14 09:41:35;;;;;;;8.85;2.00;;;;;;;26.16;45.64;101852.88;7399856;19;20026;-57
2022/07/14 09:44:09;;;;;;;10.35;2.70;;;;;;;25.43;46.93;101854.19;7397425;19;20014;-56
2022/07/14 09:46:54;;;;;;;9.18;2.08;;;;;;;25.61;45.31;101848.97;7398088;19;20029;-57
2022/07/14 09:49:26;;;;;;;6.20;1.85;;;;;;;25.64;44.87;101851.38;7398886;19;20095;-57
2022/07/14 09:52:00;;;;;;;5.03;1.30;;;;;;;25.78;45.72;101857.31;7394856;19;20011;-55
2022/07/14 09:54:46;;;;;;;6.15;1.60;;;;;;;26.02;44.99;101860.44;7396440;19;20013;-56
2022/07/14 09:57:27;;;;;;;7.93;1.67;;;;;;;26.15;44.50;101862.81;7396869;19;20380;-52
2022/07/14 10:00:08;;;;;;;11.57;1.80;;;;;;;26.26;44.35;101856.38;7395034;19;20021;-53
2022/07/14 10:02:42;;;;;;;4.85;1.90;;;;;;;26.36;42.23;101864.44;7396807;19;20393;-52
2022/07/14 10:05:12;;;;;;;8.13;1.23;;;;;;;26.49;42.22;101864.94;7395043;19;20106;-55
2022/07/14 10:07:43;;;;;;;11.45;1.90;;;;;;;26.27;40.32;101862.63;7397248;19;20080;-55
2022/07/14 10:10:15;;;;;;;3.13;1.30;;;;;;;26.39;41.80;101862.31;7393076;19;20022;-52
2022/07/14 10:12:45;;;;;;;89.90;8.07;;;;;;;26.31;41.46;101858.66;7395542;19;20014;-51
2022/07/14 10:15:16;;;;;;;5.65;1.50;;;;;;;26.48;42.35;101867.78;7394251;19;20392;-55
2022/07/14 10:17:45;;;;;;;5.28;2.13;;;;;;;26.64;41.08;101859.94;7396735;19;20363;-54
2022/07/14 10:20:16;;;;;;;3.53;1.10;;;;;;;26.83;39.23;101861.72;7393664;19;20014;-55
2022/07/14 10:22:48;;;;;;;2.58;1.00;;;;;;;26.75;40.21;101865.16;7396037;19;20011;-56
2022/07/14 10:25:17;;;;;;;3.63;1.27;;;;;;;26.94;39.25;101856.13;7393526;19;20451;-57
2022/07/14 10:27:47;;;;;;;4.25;1.15;;;;;;;27.06;38.34;101859.44;7396178;19;20096;-55
2022/07/14 10:30:17;;;;;;;30.92;4.43;;;;;;;27.06;38.40;101861.31;7394954;19;20356;-54
2022/07/14 10:32:57;;;;;;;13.73;2.30;;;;;;;26.67;38.52;101856.94;7393022;19;20010;-56
2022/07/14 10:35:37;;;;;;;5.88;1.65;;;;;;;26.72;39.56;101857.41;7398362;19;20094;-57
2022/07/14 10:38:24;;;;;;;3.85;1.20;;;;;;;26.98;38.45;101858.50;7399479;19;20325;-56
2022/07/14 10:41:04;;;;;;;4.18;1.80;;;;;;;26.70;38.30;101866.59;7397454;19;20014;-53
2022/07/14 10:43:49;;;;;;;4.32;1.35;;;;;;;26.31;38.19;101861.34;7397567;19;20018;-55
2022/07/14 10:46:36;;;;;;;4.70;1.73;;;;;;;26.59;38.15;101852.34;7394113;19;20015;-55
2022/07/14 10:49:07;;;;;;;6.50;1.80;;;;;;;26.53;38.99;101857.44;7394013;19;20018;-57
2022/07/14 10:51:44;;;;;;;4.30;1.48;;;;;;;26.57;37.60;101859.69;7396051;19;20022;-54
2022/07/14 10:54:17;;;;;;;5.20;1.77;;;;;;;26.59;37.20;101841.56;7392360;19;20018;-55
2022/07/14 10:56:47;;;;;;;5.22;1.88;;;;;;;26.77;36.66;101849.72;7395206;19;20034;-53
2022/07/14 10:59:35;;;;;;;7.88;1.92;;;;;;;26.58;36.76;101847.09;7395490;19;20014;-53
2022/07/14 11:02:34;;;;;;;6.53;1.85;;;;;;;27.14;37.65;101844.41;7393659;19;20014;-57
2022/07/14 11:05:11;;;;;;;6.05;1.70;;;;;;;27.08;36.19;101851.22;7393370;19;20841;-58
2022/07/14 11:07:44;;;;;;;6.15;1.58;;;;;;;26.60;37.93;101843.25;7394161;19;20014;-53
2022/07/14 11:10:43;;;;;;;5.93;1.90;;;;;;;27.04;38.62;101844.47;7394752;19;20025;-57
2022/07/14 11:13:18;;;;;;;14.18;2.13;;;;;;;27.44;36.81;101844.06;7391861;19;20026;-58
2022/07/14 11:15:52;;;;;;;68.20;5.60;;;;;;;27.90;37.26;101846.63;7392602;19;20015;-56
2022/07/14 11:18:32;;;;;;;4.55;1.95;;;;;;;28.38;35.86;101848.97;7394689;19;20376;-56
2022/07/14 11:21:06;;;;;;;12.77;2.97;;;;;;;28.51;34.42;101851.22;7390163;19;20018;-55
2022/07/14 11:23:37;;;;;;;4.53;2.17;;;;;;;28.54;35.21;101856.28;7391446;19;20018;-57
2022/07/14 11:26:07;;;;;;;7.20;2.05;;;;;;;28.56;35.51;101857.81;7392078;19;20140;-55
2022/07/14 11:28:51;;;;;;;6.75;1.60;;;;;;;28.33;36.06;101851.28;7394545;19;20033;-56
2022/07/14 11:31:23;;;;;;;5.60;1.80;;;;;;;28.64;36.73;101859.72;7391255;19;20041;-53
2022/07/14 11:36:37;;;;;;;3.47;1.58;;;;;;;28.34;35.92;101853.00;7393837;19;20086;-57
2022/07/14 11:39:24;;;;;;;17.77;1.88;;;;;;;28.40;35.21;101855.03;7390906;19;20024;-54
2022/07/14 11:42:06;;;;;;;48.00;4.10;;;;;;;28.44;34.92;101838.41;7392070;19;20131;-57
2022/07/14 11:44:54;;;;;;;20.75;2.85;;;;;;;28.23;35.19;101838.78;7393148;19;20033;-56
2022/07/14 11:47:25;;;;;;;7.70;1.63;;;;;;;27.85;37.71;101838.16;7392503;19;20015;-53
2022/07/14 11:49:57;;;;;;;4.68;1.70;;;;;;;28.00;36.58;101845.69;7391420;19;20022;-53
2022/07/14 11:52:28;;;;;;;5.45;1.50;;;;;;;27.19;37.11;101851.00;7391704;19;20011;-57